sensor_id;sensor_type;location;lat;lon;timestamp;temperature;humidity
67163;DHT22;54092;53.088;8.850;2023-04-01T00:01:12;10.00;99.90
67163;DHT22;54092;53.088;8.850;2023-04-01T00:03:39;10.00;99.90
67163;DHT22;54092;53.088;8.850;2023-04-01T00:06:05;10.00;99.90
67163;DHT22;54092;53.088;8.850;2023-04-01T00:08:30;10.00;99.90
67163;DHT22;54092;53.088;8.850;2023-04-01T00:10:56;10.00;99.90
67163;DHT22;54092;53.088;8.850;2023-04-01T00:13:23;10.00;99.90
67163;DHT22;54092;53.088;8.850;2023-04-01T00:15:50;10.00;99.90
67163;DHT22;54092;53.088;8.850;2023-04-01T00:18:16;10.00;99.90
67163;DHT22;54092;53.088;8.850;2023-04-01T00:20:47;10.00;99.90
67163;DHT22;54092;53.088;8.850;2023-04-01T00:23:13;10.00;99.90
67163;DHT22;54092;53.088;8.850;2023-04-01T00:25:39;10.00;99.90
67163;DHT22;54092;53.088;8.850;2023-04-01T00:28:04;9.90;99.90
67163;DHT22;54092;53.088;8.850;2023-04-01T00:30:30;9.90;99.90
67163;DHT22;54092;53.088;8.850;2023-04-01T00:32:55;9.90;99.90
67163;DHT22;54092;53.088;8.850;2023-04-01T00:35:21;9.90;99.90
67163;DHT22;54092;53.088;8.850;2023-04-01T00:37:47;9.90;99.90
67163;DHT22;54092;53.088;8.850;2023-04-01T00:40:34;9.90;99.90
67163;DHT22;54092;53.088;8.850;2023-04-01T00:43:00;9.90;99.90
67163;DHT22;54092;53.088;8.850;2023-04-01T00:47:54;9.90;99.90
67163;DHT22;54092;53.088;8.850;2023-04-01T00:50:22;9.90;99.90
67163;DHT22;54092;53.088;8.850;2023-04-01T00:52:48;9.90;99.90
67163;DHT22;54092;53.088;8.850;2023-04-01T00:55:14;9.90;99.90
67163;DHT22;54092;53.088;8.850;2023-04-01T00:57:42;9.90;99.90
67163;DHT22;54092;53.088;8.850;2023-04-01T01:00:11;9.90;99.90
67163;DHT22;54092;53.088;8.850;2023-04-01T01:02:38;9.90;99.90
67163;DHT22;54092;53.088;8.850;2023-04-01T01:05:04;9.90;99.90
67163;DHT22;54092;53.088;8.850;2023-04-01T01:07:52;9.90;99.90
67163;DHT22;54092;53.088;8.850;2023-04-01T01:10:33;10.00;99.90
67163;DHT22;54092;53.088;8.850;2023-04-01T01:13:10;9.90;99.90
67163;DHT22;54092;53.088;8.850;2023-04-01T01:15:45;9.90;99.90
67163;DHT22;54092;53.088;8.850;2023-04-01T01:18:21;9.90;99.90
67163;DHT22;54092;53.088;8.850;2023-04-01T01:26:59;9.90;99.90
67163;DHT22;54092;53.088;8.850;2023-04-01T01:32:52;9.90;99.90
67163;DHT22;54092;53.088;8.850;2023-04-01T01:35:40;9.90;99.90
67163;DHT22;54092;53.088;8.850;2023-04-01T01:38:13;9.90;99.90
67163;DHT22;54092;53.088;8.850;2023-04-01T01:40:42;9.90;99.90
67163;DHT22;54092;53.088;8.850;2023-04-01T01:43:11;9.90;99.90
67163;DHT22;54092;53.088;8.850;2023-04-01T01:45:40;9.90;99.90
67163;DHT22;54092;53.088;8.850;2023-04-01T01:48:09;9.90;99.90
67163;DHT22;54092;53.088;8.850;2023-04-01T01:50:35;9.90;99.90
67163;DHT22;54092;53.088;8.850;2023-04-01T01:53:07;9.90;99.90
67163;DHT22;54092;53.088;8.850;2023-04-01T01:55:35;9.90;99.90
67163;DHT22;54092;53.088;8.850;2023-04-01T02:00:36;9.90;99.90
67163;DHT22;54092;53.088;8.850;2023-04-01T02:03:02;9.90;99.90
67163;DHT22;54092;53.088;8.850;2023-04-01T02:05:29;9.90;99.90
67163;DHT22;54092;53.088;8.850;2023-04-01T02:08:17;9.90;99.90
67163;DHT22;54092;53.088;8.850;2023-04-01T02:10:51;9.90;99.90
67163;DHT22;54092;53.088;8.850;2023-04-01T02:13:34;9.90;99.90
67163;DHT22;54092;53.088;8.850;2023-04-01T02:16:05;9.90;99.90
67163;DHT22;54092;53.088;8.850;2023-04-01T02:18:35;9.90;99.90
67163;DHT22;54092;53.088;8.850;2023-04-01T02:21:03;9.90;99.90
67163;DHT22;54092;53.088;8.850;2023-04-01T02:23:33;9.90;99.90
67163;DHT22;54092;53.088;8.850;2023-04-01T02:25:59;9.90;99.90
67163;DHT22;54092;53.088;8.850;2023-04-01T02:28:26;9.90;99.90
67163;DHT22;54092;53.088;8.850;2023-04-01T02:30:52;9.90;99.90
67163;DHT22;54092;53.088;8.850;2023-04-01T02:33:19;9.90;99.90
67163;DHT22;54092;53.088;8.850;2023-04-01T02:35:45;9.90;99.90
67163;DHT22;54092;53.088;8.850;2023-04-01T02:38:11;9.80;99.90
67163;DHT22;54092;53.088;8.850;2023-04-01T02:40:48;9.90;99.90
67163;DHT22;54092;53.088;8.850;2023-04-01T02:43:14;9.80;99.90
67163;DHT22;54092;53.088;8.850;2023-04-01T02:45:41;9.80;99.90
67163;DHT22;54092;53.088;8.850;2023-04-01T02:48:07;9.80;99.90
67163;DHT22;54092;53.088;8.850;2023-04-01T02:50:32;9.80;99.90
67163;DHT22;54092;53.088;8.850;2023-04-01T02:52:58;9.80;99.90
67163;DHT22;54092;53.088;8.850;2023-04-01T02:55:23;9.80;99.90
67163;DHT22;54092;53.088;8.850;2023-04-01T02:57:49;9.80;99.90
67163;DHT22;54092;53.088;8.850;2023-04-01T03:00:15;9.80;99.90
67163;DHT22;54092;53.088;8.850;2023-04-01T03:02:41;9.80;99.90
67163;DHT22;54092;53.088;8.850;2023-04-01T03:05:07;9.80;99.90
67163;DHT22;54092;53.088;8.850;2023-04-01T03:07:33;9.80;99.90
67163;DHT22;54092;53.088;8.850;2023-04-01T03:09:58;9.80;99.90
67163;DHT22;54092;53.088;8.850;2023-04-01T03:12:24;9.80;99.90
67163;DHT22;54092;53.088;8.850;2023-04-01T03:14:49;9.80;99.90
67163;DHT22;54092;53.088;8.850;2023-04-01T03:17:15;9.80;99.90
67163;DHT22;54092;53.088;8.850;2023-04-01T03:19:40;9.80;99.90
67163;DHT22;54092;53.088;8.850;2023-04-01T03:22:06;9.80;99.90
67163;DHT22;54092;53.088;8.850;2023-04-01T03:24:31;9.70;99.90
67163;DHT22;54092;53.088;8.850;2023-04-01T03:26:57;9.70;99.90
67163;DHT22;54092;53.088;8.850;2023-04-01T03:29:22;9.70;99.90
67163;DHT22;54092;53.088;8.850;2023-04-01T03:31:48;9.70;99.90
67163;DHT22;54092;53.088;8.850;2023-04-01T03:34:13;9.70;99.90
67163;DHT22;54092;53.088;8.850;2023-04-01T03:36:39;9.70;99.90
67163;DHT22;54092;53.088;8.850;2023-04-01T03:39:05;9.70;99.90
67163;DHT22;54092;53.088;8.850;2023-04-01T03:41:31;9.70;99.90
67163;DHT22;54092;53.088;8.850;2023-04-01T03:43:57;9.70;99.90
67163;DHT22;54092;53.088;8.850;2023-04-01T03:46:22;9.70;99.90
67163;DHT22;54092;53.088;8.850;2023-04-01T03:48:48;9.70;99.90
67163;DHT22;54092;53.088;8.850;2023-04-01T03:51:14;9.70;99.90
67163;DHT22;54092;53.088;8.850;2023-04-01T03:53:39;9.70;99.90
67163;DHT22;54092;53.088;8.850;2023-04-01T03:56:06;9.70;99.90
67163;DHT22;54092;53.088;8.850;2023-04-01T03:58:32;9.70;99.90
67163;DHT22;54092;53.088;8.850;2023-04-01T04:00:57;9.70;99.90
67163;DHT22;54092;53.088;8.850;2023-04-01T04:03:23;9.70;99.90
67163;DHT22;54092;53.088;8.850;2023-04-01T04:05:49;9.70;99.90
67163;DHT22;54092;53.088;8.850;2023-04-01T04:08:15;9.70;99.90
67163;DHT22;54092;53.088;8.850;2023-04-01T04:10:40;9.70;99.90
67163;DHT22;54092;53.088;8.850;2023-04-01T04:13:06;9.70;99.90
67163;DHT22;54092;53.088;8.850;2023-04-01T04:15:32;9.70;99.90
67163;DHT22;54092;53.088;8.850;2023-04-01T04:17:57;9.70;99.90
67163;DHT22;54092;53.088;8.850;2023-04-01T04:20:23;9.70;99.90
67163;DHT22;54092;53.088;8.850;2023-04-01T04:22:48;9.70;99.90
67163;DHT22;54092;53.088;8.850;2023-04-01T04:25:14;9.70;99.90
67163;DHT22;54092;53.088;8.850;2023-04-01T04:27:40;9.60;99.90
67163;DHT22;54092;53.088;8.850;2023-04-01T04:30:06;9.60;99.90
67163;DHT22;54092;53.088;8.850;2023-04-01T04:32:32;9.70;99.90
67163;DHT22;54092;53.088;8.850;2023-04-01T04:34:57;9.70;99.90
67163;DHT22;54092;53.088;8.850;2023-04-01T04:37:23;9.70;99.90
67163;DHT22;54092;53.088;8.850;2023-04-01T04:39:48;9.60;99.90
67163;DHT22;54092;53.088;8.850;2023-04-01T04:42:14;9.60;99.90
67163;DHT22;54092;53.088;8.850;2023-04-01T04:44:39;9.60;99.90
67163;DHT22;54092;53.088;8.850;2023-04-01T04:47:05;9.60;99.90
67163;DHT22;54092;53.088;8.850;2023-04-01T04:49:30;9.60;99.90
67163;DHT22;54092;53.088;8.850;2023-04-01T04:51:56;9.60;99.90
67163;DHT22;54092;53.088;8.850;2023-04-01T04:54:21;9.60;99.90
67163;DHT22;54092;53.088;8.850;2023-04-01T04:56:47;9.50;99.90
67163;DHT22;54092;53.088;8.850;2023-04-01T04:59:12;9.50;99.90
67163;DHT22;54092;53.088;8.850;2023-04-01T05:01:38;9.60;99.90
67163;DHT22;54092;53.088;8.850;2023-04-01T05:04:03;9.50;99.90
67163;DHT22;54092;53.088;8.850;2023-04-01T05:06:29;9.50;99.90
67163;DHT22;54092;53.088;8.850;2023-04-01T05:08:55;9.60;99.90
67163;DHT22;54092;53.088;8.850;2023-04-01T05:11:21;9.60;99.90
67163;DHT22;54092;53.088;8.850;2023-04-01T05:13:47;9.60;99.90
67163;DHT22;54092;53.088;8.850;2023-04-01T05:16:16;9.60;99.90
67163;DHT22;54092;53.088;8.850;2023-04-01T05:18:42;9.50;99.90
67163;DHT22;54092;53.088;8.850;2023-04-01T05:21:10;9.60;99.90
67163;DHT22;54092;53.088;8.850;2023-04-01T05:23:36;9.60;99.90
67163;DHT22;54092;53.088;8.850;2023-04-01T05:26:06;9.60;99.90
67163;DHT22;54092;53.088;8.850;2023-04-01T05:28:32;9.60;99.90
67163;DHT22;54092;53.088;8.850;2023-04-01T05:31:02;9.60;99.90
67163;DHT22;54092;53.088;8.850;2023-04-01T05:33:29;9.60;99.90
67163;DHT22;54092;53.088;8.850;2023-04-01T05:35:55;9.60;99.90
67163;DHT22;54092;53.088;8.850;2023-04-01T05:38:20;9.60;99.90
67163;DHT22;54092;53.088;8.850;2023-04-01T05:40:46;9.50;99.90
67163;DHT22;54092;53.088;8.850;2023-04-01T05:43:12;9.60;99.90
67163;DHT22;54092;53.088;8.850;2023-04-01T05:45:37;9.60;99.90
67163;DHT22;54092;53.088;8.850;2023-04-01T05:48:03;9.60;99.90
67163;DHT22;54092;53.088;8.850;2023-04-01T05:50:29;9.60;99.90
67163;DHT22;54092;53.088;8.850;2023-04-01T05:52:54;9.60;99.90
67163;DHT22;54092;53.088;8.850;2023-04-01T05:55:20;9.60;99.90
67163;DHT22;54092;53.088;8.850;2023-04-01T05:57:46;9.60;99.90
67163;DHT22;54092;53.088;8.850;2023-04-01T06:00:14;9.70;99.90
67163;DHT22;54092;53.088;8.850;2023-04-01T06:02:40;9.70;99.90
67163;DHT22;54092;53.088;8.850;2023-04-01T06:05:24;9.70;99.90
67163;DHT22;54092;53.088;8.850;2023-04-01T06:07:58;9.60;99.90
67163;DHT22;54092;53.088;8.850;2023-04-01T06:16:18;9.70;99.90
67163;DHT22;54092;53.088;8.850;2023-04-01T06:19:05;9.70;99.90
67163;DHT22;54092;53.088;8.850;2023-04-01T06:21:37;9.70;99.90
67163;DHT22;54092;53.088;8.850;2023-04-01T06:24:46;9.70;99.90
67163;DHT22;54092;53.088;8.850;2023-04-01T06:27:27;9.70;99.90
67163;DHT22;54092;53.088;8.850;2023-04-01T06:30:24;9.70;99.90
67163;DHT22;54092;53.088;8.850;2023-04-01T06:32:58;9.70;99.90
67163;DHT22;54092;53.088;8.850;2023-04-01T06:35:42;9.70;99.90
67163;DHT22;54092;53.088;8.850;2023-04-01T06:38:39;9.80;99.90
67163;DHT22;54092;53.088;8.850;2023-04-01T06:41:31;9.70;99.90
67163;DHT22;54092;53.088;8.850;2023-04-01T06:46:58;9.80;99.90
67163;DHT22;54092;53.088;8.850;2023-04-01T06:49:47;9.80;99.90
67163;DHT22;54092;53.088;8.850;2023-04-01T06:55:29;9.80;99.90
67163;DHT22;54092;53.088;8.850;2023-04-01T06:57:59;9.90;99.90
67163;DHT22;54092;53.088;8.850;2023-04-01T07:00:30;9.90;99.90
67163;DHT22;54092;53.088;8.850;2023-04-01T07:03:00;9.90;99.90
67163;DHT22;54092;53.088;8.850;2023-04-01T07:05:34;9.90;99.90
67163;DHT22;54092;53.088;8.850;2023-04-01T07:08:08;10.00;99.90
67163;DHT22;54092;53.088;8.850;2023-04-01T07:10:50;10.00;99.90
67163;DHT22;54092;53.088;8.850;2023-04-01T07:16:17;10.00;99.90
67163;DHT22;54092;53.088;8.850;2023-04-01T07:18:45;10.00;99.90
67163;DHT22;54092;53.088;8.850;2023-04-01T07:21:29;10.00;99.90
67163;DHT22;54092;53.088;8.850;2023-04-01T07:23:59;10.00;99.90
67163;DHT22;54092;53.088;8.850;2023-04-01T07:26:26;10.00;99.90
67163;DHT22;54092;53.088;8.850;2023-04-01T07:28:53;10.00;99.90
67163;DHT22;54092;53.088;8.850;2023-04-01T07:31:25;10.10;99.90
67163;DHT22;54092;53.088;8.850;2023-04-01T07:36:58;10.10;99.90
67163;DHT22;54092;53.088;8.850;2023-04-01T07:39:55;10.10;99.90
67163;DHT22;54092;53.088;8.850;2023-04-01T07:42:39;10.10;99.90
67163;DHT22;54092;53.088;8.850;2023-04-01T07:45:13;10.10;99.90
67163;DHT22;54092;53.088;8.850;2023-04-01T07:50:40;10.20;99.90
67163;DHT22;54092;53.088;8.850;2023-04-01T07:53:36;10.20;99.90
67163;DHT22;54092;53.088;8.850;2023-04-01T07:56:10;10.20;99.90
67163;DHT22;54092;53.088;8.850;2023-04-01T08:01:19;10.30;99.90
67163;DHT22;54092;53.088;8.850;2023-04-01T08:04:11;10.40;99.90
67163;DHT22;54092;53.088;8.850;2023-04-01T08:06:57;10.40;99.90
67163;DHT22;54092;53.088;8.850;2023-04-01T08:09:38;10.40;99.90
67163;DHT22;54092;53.088;8.850;2023-04-01T08:12:38;10.50;99.90
67163;DHT22;54092;53.088;8.850;2023-04-01T08:15:28;10.60;99.90
67163;DHT22;54092;53.088;8.850;2023-04-01T08:23:40;10.90;99.90
67163;DHT22;54092;53.088;8.850;2023-04-01T08:26:26;11.00;99.90
67163;DHT22;54092;53.088;8.850;2023-04-01T08:29:00;11.10;99.90
67163;DHT22;54092;53.088;8.850;2023-04-01T08:31:36;11.10;99.90
67163;DHT22;54092;53.088;8.850;2023-04-01T08:34:05;11.10;99.90
67163;DHT22;54092;53.088;8.850;2023-04-01T08:36:40;11.10;99.90
67163;DHT22;54092;53.088;8.850;2023-04-01T08:39:21;11.20;99.90
67163;DHT22;54092;53.088;8.850;2023-04-01T08:44:56;11.10;99.90
67163;DHT22;54092;53.088;8.850;2023-04-01T08:53:03;11.20;99.90
67163;DHT22;54092;53.088;8.850;2023-04-01T08:58:27;11.30;99.90
67163;DHT22;54092;53.088;8.850;2023-04-01T09:01:26;11.30;99.90
67163;DHT22;54092;53.088;8.850;2023-04-01T09:12:34;11.30;99.90
67163;DHT22;54092;53.088;8.850;2023-04-01T09:15:32;11.30;99.90
67163;DHT22;54092;53.088;8.850;2023-04-01T09:18:22;11.20;99.90
67163;DHT22;54092;53.088;8.850;2023-04-01T09:23:54;11.30;99.90
67163;DHT22;54092;53.088;8.850;2023-04-01T09:27:00;11.50;99.90
67163;DHT22;54092;53.088;8.850;2023-04-01T09:30:03;11.80;99.90
67163;DHT22;54092;53.088;8.850;2023-04-01T09:32:42;12.10;99.90
67163;DHT22;54092;53.088;8.850;2023-04-01T09:38:38;12.40;99.90
67163;DHT22;54092;53.088;8.850;2023-04-01T09:41:24;12.50;99.90
67163;DHT22;54092;53.088;8.850;2023-04-01T09:44:00;12.40;99.90
67163;DHT22;54092;53.088;8.850;2023-04-01T09:52:14;12.30;99.90
67163;DHT22;54092;53.088;8.850;2023-04-01T09:55:14;12.20;99.90
67163;DHT22;54092;53.088;8.850;2023-04-01T10:03:37;12.20;99.90
67163;DHT22;54092;53.088;8.850;2023-04-01T10:09:53;12.10;99.90
67163;DHT22;54092;53.088;8.850;2023-04-01T10:21:10;11.00;99.90
67163;DHT22;54092;53.088;8.850;2023-04-01T10:23:53;10.40;99.90
67163;DHT22;54092;53.088;8.850;2023-04-01T10:33:08;9.90;99.90
67163;DHT22;54092;53.088;8.850;2023-04-01T10:38:55;9.70;99.90
67163;DHT22;54092;53.088;8.850;2023-04-01T10:41:33;9.70;99.90
67163;DHT22;54092;53.088;8.850;2023-04-01T10:44:25;9.60;99.90
67163;DHT22;54092;53.088;8.850;2023-04-01T10:49:41;9.40;99.90
67163;DHT22;54092;53.088;8.850;2023-04-01T11:00:32;9.30;99.90
67163;DHT22;54092;53.088;8.850;2023-04-01T11:06:03;9.50;99.90
67163;DHT22;54092;53.088;8.850;2023-04-01T11:08:45;9.60;99.90
67163;DHT22;54092;53.088;8.850;2023-04-01T11:19:42;9.70;99.90
67163;DHT22;54092;53.088;8.850;2023-04-01T11:22:43;9.60;99.90
67163;DHT22;54092;53.088;8.850;2023-04-01T11:30:49;9.30;99.90
67163;DHT22;54092;53.088;8.850;2023-04-01T11:33:30;9.20;99.90
67163;DHT22;54092;53.088;8.850;2023-04-01T11:36:34;9.10;99.90
67163;DHT22;54092;53.088;8.850;2023-04-01T11:42:47;8.90;99.90
67163;DHT22;54092;53.088;8.850;2023-04-01T11:45:46;8.90;99.90
67163;DHT22;54092;53.088;8.850;2023-04-01T11:57:17;8.90;99.90
67163;DHT22;54092;53.088;8.850;2023-04-01T12:02:42;9.20;99.90
67163;DHT22;54092;53.088;8.850;2023-04-01T12:08:10;9.30;99.90
67163;DHT22;54092;53.088;8.850;2023-04-01T12:10:57;9.30;99.90
67163;DHT22;54092;53.088;8.850;2023-04-01T12:13:40;9.40;99.90
67163;DHT22;54092;53.088;8.850;2023-04-01T12:16:22;9.30;99.90
67163;DHT22;54092;53.088;8.850;2023-04-01T12:21:37;9.30;99.90
67163;DHT22;54092;53.088;8.850;2023-04-01T12:24:29;9.20;99.90
67163;DHT22;54092;53.088;8.850;2023-04-01T12:40:38;9.00;99.90
67163;DHT22;54092;53.088;8.850;2023-04-01T12:54:08;9.00;99.90
67163;DHT22;54092;53.088;8.850;2023-04-01T12:56:59;9.10;99.90
67163;DHT22;54092;53.088;8.850;2023-04-01T12:59:39;9.10;99.90
67163;DHT22;54092;53.088;8.850;2023-04-01T13:10:31;9.30;99.90
67163;DHT22;54092;53.088;8.850;2023-04-01T13:15:53;9.40;99.90
67163;DHT22;54092;53.088;8.850;2023-04-01T13:18:32;9.20;99.90
67163;DHT22;54092;53.088;8.850;2023-04-01T13:30:02;9.10;99.90
67163;DHT22;54092;53.088;8.850;2023-04-01T13:32:43;9.10;99.90
67163;DHT22;54092;53.088;8.850;2023-04-01T13:43:28;8.80;99.90
67163;DHT22;54092;53.088;8.850;2023-04-01T13:48:38;8.70;99.90
67163;DHT22;54092;53.088;8.850;2023-04-01T13:57:23;8.60;99.90
67163;DHT22;54092;53.088;8.850;2023-04-01T14:00:17;8.50;99.90
67163;DHT22;54092;53.088;8.850;2023-04-01T14:05:50;8.40;99.90
67163;DHT22;54092;53.088;8.850;2023-04-01T14:08:30;8.40;99.90
67163;DHT22;54092;53.088;8.850;2023-04-01T14:11:19;8.30;99.90
67163;DHT22;54092;53.088;8.850;2023-04-01T14:27:48;8.20;99.90
67163;DHT22;54092;53.088;8.850;2023-04-01T14:39:26;8.00;99.90
67163;DHT22;54092;53.088;8.850;2023-04-01T14:42:09;7.90;99.90
67163;DHT22;54092;53.088;8.850;2023-04-01T14:44:55;8.00;99.90
67163;DHT22;54092;53.088;8.850;2023-04-01T14:47:34;7.90;99.90
67163;DHT22;54092;53.088;8.850;2023-04-01T14:52:44;7.90;99.90
67163;DHT22;54092;53.088;8.850;2023-04-01T14:55:31;7.80;99.90
67163;DHT22;54092;53.088;8.850;2023-04-01T14:58:19;7.80;99.90
67163;DHT22;54092;53.088;8.850;2023-04-01T15:00:48;7.70;99.90
67163;DHT22;54092;53.088;8.850;2023-04-01T15:03:26;7.70;99.90
67163;DHT22;54092;53.088;8.850;2023-04-01T15:08:57;7.70;99.90
67163;DHT22;54092;53.088;8.850;2023-04-01T15:11:44;7.70;99.90
67163;DHT22;54092;53.088;8.850;2023-04-01T15:14:40;7.70;99.90
67163;DHT22;54092;53.088;8.850;2023-04-01T15:17:36;7.70;99.90
67163;DHT22;54092;53.088;8.850;2023-04-01T15:20:29;7.60;99.90
67163;DHT22;54092;53.088;8.850;2023-04-01T15:23:21;7.60;99.90
67163;DHT22;54092;53.088;8.850;2023-04-01T15:26:20;7.60;99.90
67163;DHT22;54092;53.088;8.850;2023-04-01T15:34:30;7.50;99.90
67163;DHT22;54092;53.088;8.850;2023-04-01T15:37:49;7.50;99.90
67163;DHT22;54092;53.088;8.850;2023-04-01T15:47:58;7.50;99.90
67163;DHT22;54092;53.088;8.850;2023-04-01T15:53:09;7.50;99.90
67163;DHT22;54092;53.088;8.850;2023-04-01T15:55:54;7.40;99.90
67163;DHT22;54092;53.088;8.850;2023-04-01T15:58:56;7.30;99.90
67163;DHT22;54092;53.088;8.850;2023-04-01T16:04:31;7.30;99.90
67163;DHT22;54092;53.088;8.850;2023-04-01T16:10:23;7.20;99.90
67163;DHT22;54092;53.088;8.850;2023-04-01T16:13:24;7.20;99.90
67163;DHT22;54092;53.088;8.850;2023-04-01T16:18:54;7.10;99.90
67163;DHT22;54092;53.088;8.850;2023-04-01T16:21:37;7.10;99.90
67163;DHT22;54092;53.088;8.850;2023-04-01T16:35:33;6.90;99.90
67163;DHT22;54092;53.088;8.850;2023-04-01T16:46:27;6.70;99.90
67163;DHT22;54092;53.088;8.850;2023-04-01T16:51:53;6.70;99.90
67163;DHT22;54092;53.088;8.850;2023-04-01T16:54:41;6.70;99.90
67163;DHT22;54092;53.088;8.850;2023-04-01T17:02:47;6.60;99.90
67163;DHT22;54092;53.088;8.850;2023-04-01T17:05:15;6.60;99.90
67163;DHT22;54092;53.088;8.850;2023-04-01T17:10:46;6.60;99.90
67163;DHT22;54092;53.088;8.850;2023-04-01T17:18:58;6.60;99.90
67163;DHT22;54092;53.088;8.850;2023-04-01T17:21:54;6.50;99.90
67163;DHT22;54092;53.088;8.850;2023-04-01T17:33:37;6.50;99.90
67163;DHT22;54092;53.088;8.850;2023-04-01T17:35:40;6.50;99.90
67163;DHT22;54092;53.088;8.850;2023-04-01T17:38:44;6.60;99.90
67163;DHT22;54092;53.088;8.850;2023-04-01T17:41:47;6.60;99.90
67163;DHT22;54092;53.088;8.850;2023-04-01T17:44:24;6.60;99.90
67163;DHT22;54092;53.088;8.850;2023-04-01T17:47:10;6.60;99.90
67163;DHT22;54092;53.088;8.850;2023-04-01T17:50:01;6.50;99.90
67163;DHT22;54092;53.088;8.850;2023-04-01T17:52:44;6.50;99.90
67163;DHT22;54092;53.088;8.850;2023-04-01T17:58:29;6.60;99.90
67163;DHT22;54092;53.088;8.850;2023-04-01T18:04:08;6.60;99.90
67163;DHT22;54092;53.088;8.850;2023-04-01T18:09:39;6.40;99.90
67163;DHT22;54092;53.088;8.850;2023-04-01T18:15:27;6.30;99.90
67163;DHT22;54092;53.088;8.850;2023-04-01T18:21:07;6.10;99.90
67163;DHT22;54092;53.088;8.850;2023-04-01T18:23:47;6.10;99.90
67163;DHT22;54092;53.088;8.850;2023-04-01T18:26:32;6.10;99.90
67163;DHT22;54092;53.088;8.850;2023-04-01T18:29:04;6.00;99.90
67163;DHT22;54092;53.088;8.850;2023-04-01T18:31:40;6.10;99.90
67163;DHT22;54092;53.088;8.850;2023-04-01T18:34:41;6.10;99.90
67163;DHT22;54092;53.088;8.850;2023-04-01T18:37:22;6.10;99.90
67163;DHT22;54092;53.088;8.850;2023-04-01T18:40:15;6.20;99.90
67163;DHT22;54092;53.088;8.850;2023-04-01T18:43:09;6.20;99.90
67163;DHT22;54092;53.088;8.850;2023-04-01T18:45:41;6.10;99.90
67163;DHT22;54092;53.088;8.850;2023-04-01T18:51:41;6.10;99.90
67163;DHT22;54092;53.088;8.850;2023-04-01T18:54:22;6.10;99.90
67163;DHT22;54092;53.088;8.850;2023-04-01T18:57:03;6.00;99.90
67163;DHT22;54092;53.088;8.850;2023-04-01T18:59:39;6.00;99.90
67163;DHT22;54092;53.088;8.850;2023-04-01T19:04:41;6.00;99.90
67163;DHT22;54092;53.088;8.850;2023-04-01T19:10:23;5.90;99.90
67163;DHT22;54092;53.088;8.850;2023-04-01T19:16:05;5.90;99.90
67163;DHT22;54092;53.088;8.850;2023-04-01T19:21:28;5.90;99.90
67163;DHT22;54092;53.088;8.850;2023-04-01T19:24:10;5.80;99.90
67163;DHT22;54092;53.088;8.850;2023-04-01T19:27:07;5.80;99.90
67163;DHT22;54092;53.088;8.850;2023-04-01T19:29:56;5.80;99.90
67163;DHT22;54092;53.088;8.850;2023-04-01T19:38:53;5.80;99.90
67163;DHT22;54092;53.088;8.850;2023-04-01T19:41:07;5.70;99.90
67163;DHT22;54092;53.088;8.850;2023-04-01T19:46:49;5.60;99.90
67163;DHT22;54092;53.088;8.850;2023-04-01T19:49:41;5.60;99.90
67163;DHT22;54092;53.088;8.850;2023-04-01T19:57:30;5.70;99.90
67163;DHT22;54092;53.088;8.850;2023-04-01T20:05:45;5.60;99.90
67163;DHT22;54092;53.088;8.850;2023-04-01T20:16:04;5.50;99.90
67163;DHT22;54092;53.088;8.850;2023-04-01T20:18:59;5.40;99.90
67163;DHT22;54092;53.088;8.850;2023-04-01T20:21:43;5.40;99.90
67163;DHT22;54092;53.088;8.850;2023-04-01T20:24:19;5.50;99.90
67163;DHT22;54092;53.088;8.850;2023-04-01T20:26:58;5.50;99.90
67163;DHT22;54092;53.088;8.850;2023-04-01T20:32:27;5.40;99.90
67163;DHT22;54092;53.088;8.850;2023-04-01T20:35:19;5.40;99.90
67163;DHT22;54092;53.088;8.850;2023-04-01T20:37:49;5.50;99.90
67163;DHT22;54092;53.088;8.850;2023-04-01T20:49:06;5.40;99.90
67163;DHT22;54092;53.088;8.850;2023-04-01T20:51:30;5.40;99.90
67163;DHT22;54092;53.088;8.850;2023-04-01T20:55:15;5.40;99.90
67163;DHT22;54092;53.088;8.850;2023-04-01T21:10:48;5.30;99.90
67163;DHT22;54092;53.088;8.850;2023-04-01T21:13:41;5.20;99.90
67163;DHT22;54092;53.088;8.850;2023-04-01T21:19:25;5.10;99.90
67163;DHT22;54092;53.088;8.850;2023-04-01T21:22:11;5.10;99.90
67163;DHT22;54092;53.088;8.850;2023-04-01T21:24:47;5.00;99.90
67163;DHT22;54092;53.088;8.850;2023-04-01T21:27:39;5.00;99.90
67163;DHT22;54092;53.088;8.850;2023-04-01T21:30:42;5.00;99.90
67163;DHT22;54092;53.088;8.850;2023-04-01T21:33:45;5.00;99.90
67163;DHT22;54092;53.088;8.850;2023-04-01T21:36:44;5.00;99.90
67163;DHT22;54092;53.088;8.850;2023-04-01T21:39:35;5.00;99.90
67163;DHT22;54092;53.088;8.850;2023-04-01T21:45:20;4.80;99.90
67163;DHT22;54092;53.088;8.850;2023-04-01T22:04:59;4.60;99.90
67163;DHT22;54092;53.088;8.850;2023-04-01T22:10:28;4.30;99.90
67163;DHT22;54092;53.088;8.850;2023-04-01T22:13:16;4.20;99.90
67163;DHT22;54092;53.088;8.850;2023-04-01T22:16:11;4.10;99.90
67163;DHT22;54092;53.088;8.850;2023-04-01T22:21:21;4.00;99.90
67163;DHT22;54092;53.088;8.850;2023-04-01T22:26:31;3.90;99.90
67163;DHT22;54092;53.088;8.850;2023-04-01T22:29:04;3.80;99.90
67163;DHT22;54092;53.088;8.850;2023-04-01T22:31:54;3.80;99.90
67163;DHT22;54092;53.088;8.850;2023-04-01T22:37:11;3.70;99.90
67163;DHT22;54092;53.088;8.850;2023-04-01T22:40:09;3.60;99.90
67163;DHT22;54092;53.088;8.850;2023-04-01T22:42:42;3.50;99.90
67163;DHT22;54092;53.088;8.850;2023-04-01T22:47:45;3.50;99.90
67163;DHT22;54092;53.088;8.850;2023-04-01T22:50:27;3.50;99.90
67163;DHT22;54092;53.088;8.850;2023-04-01T22:53:08;3.50;99.90
67163;DHT22;54092;53.088;8.850;2023-04-01T22:55:42;3.40;99.90
67163;DHT22;54092;53.088;8.850;2023-04-01T22:58:17;3.40;99.90
67163;DHT22;54092;53.088;8.850;2023-04-01T23:00:46;3.40;99.90
67163;DHT22;54092;53.088;8.850;2023-04-01T23:03:25;3.30;99.90
67163;DHT22;54092;53.088;8.850;2023-04-01T23:05:54;3.30;99.90
67163;DHT22;54092;53.088;8.850;2023-04-01T23:08:39;3.20;99.90
67163;DHT22;54092;53.088;8.850;2023-04-01T23:11:10;3.30;99.90
67163;DHT22;54092;53.088;8.850;2023-04-01T23:13:47;3.20;99.90
67163;DHT22;54092;53.088;8.850;2023-04-01T23:16:21;3.20;99.90
67163;DHT22;54092;53.088;8.850;2023-04-01T23:19:22;3.10;99.90
67163;DHT22;54092;53.088;8.850;2023-04-01T23:21:53;3.10;99.90
67163;DHT22;54092;53.088;8.850;2023-04-01T23:24:50;3.20;99.90
67163;DHT22;54092;53.088;8.850;2023-04-01T23:27:23;3.10;99.90
67163;DHT22;54092;53.088;8.850;2023-04-01T23:29:50;3.10;99.90
67163;DHT22;54092;53.088;8.850;2023-04-01T23:32:19;3.10;99.90
67163;DHT22;54092;53.088;8.850;2023-04-01T23:34:51;3.10;99.90
67163;DHT22;54092;53.088;8.850;2023-04-01T23:37:18;3.00;99.90
67163;DHT22;54092;53.088;8.850;2023-04-01T23:39:56;3.00;99.90
67163;DHT22;54092;53.088;8.850;2023-04-01T23:42:29;2.90;99.90
67163;DHT22;54092;53.088;8.850;2023-04-01T23:45:15;2.90;99.90
67163;DHT22;54092;53.088;8.850;2023-04-01T23:47:48;2.90;99.90
67163;DHT22;54092;53.088;8.850;2023-04-01T23:50:23;2.90;99.90
67163;DHT22;54092;53.088;8.850;2023-04-01T23:53:16;2.90;99.90